sensor_id;sensor_type;location;lat;lon;timestamp;P1;durP1;ratioP1;P2;durP2;ratioP2
70725;SDS011;58304;53.104;6.022;2023-04-24T00:01:47;6.32;;;3.78;;
70725;SDS011;58304;53.104;6.022;2023-04-24T00:04:13;5.75;;;3.80;;
70725;SDS011;58304;53.104;6.022;2023-04-24T00:06:41;6.47;;;3.90;;
70725;SDS011;58304;53.104;6.022;2023-04-24T00:09:08;6.53;;;3.80;;
70725;SDS011;58304;53.104;6.022;2023-04-24T00:11:35;7.40;;;3.83;;
70725;SDS011;58304;53.104;6.022;2023-04-24T00:14:01;6.78;;;3.60;;
70725;SDS011;58304;53.104;6.022;2023-04-24T00:16:27;5.28;;;3.72;;
70725;SDS011;58304;53.104;6.022;2023-04-24T00:18:53;5.97;;;3.45;;
70725;SDS011;58304;53.104;6.022;2023-04-24T00:21:19;6.10;;;3.60;;
70725;SDS011;58304;53.104;6.022;2023-04-24T00:23:46;6.85;;;3.80;;
70725;SDS011;58304;53.104;6.022;2023-04-24T00:26:12;6.80;;;3.60;;
70725;SDS011;58304;53.104;6.022;2023-04-24T00:28:38;4.90;;;3.33;;
70725;SDS011;58304;53.104;6.022;2023-04-24T00:31:04;5.72;;;3.50;;
70725;SDS011;58304;53.104;6.022;2023-04-24T00:33:29;4.97;;;3.13;;
70725;SDS011;58304;53.104;6.022;2023-04-24T00:35:55;7.00;;;3.35;;
70725;SDS011;58304;53.104;6.022;2023-04-24T00:38:21;5.18;;;3.40;;
70725;SDS011;58304;53.104;6.022;2023-04-24T00:40:47;6.15;;;3.45;;
70725;SDS011;58304;53.104;6.022;2023-04-24T00:43:14;5.15;;;3.35;;
70725;SDS011;58304;53.104;6.022;2023-04-24T00:45:40;5.93;;;3.35;;
70725;SDS011;58304;53.104;6.022;2023-04-24T00:48:06;5.70;;;3.67;;
70725;SDS011;58304;53.104;6.022;2023-04-24T00:50:32;6.07;;;3.17;;
70725;SDS011;58304;53.104;6.022;2023-04-24T00:53:00;5.63;;;3.40;;
70725;SDS011;58304;53.104;6.022;2023-04-24T00:55:28;4.43;;;2.97;;
70725;SDS011;58304;53.104;6.022;2023-04-24T00:57:54;5.53;;;3.17;;
70725;SDS011;58304;53.104;6.022;2023-04-24T01:00:20;4.88;;;3.30;;
70725;SDS011;58304;53.104;6.022;2023-04-24T01:02:45;5.00;;;2.90;;
70725;SDS011;58304;53.104;6.022;2023-04-24T01:05:12;4.70;;;3.13;;
70725;SDS011;58304;53.104;6.022;2023-04-24T01:07:39;4.55;;;2.85;;
70725;SDS011;58304;53.104;6.022;2023-04-24T01:10:09;5.47;;;2.70;;
70725;SDS011;58304;53.104;6.022;2023-04-24T01:12:35;4.80;;;2.80;;
70725;SDS011;58304;53.104;6.022;2023-04-24T01:15:01;3.88;;;2.22;;
70725;SDS011;58304;53.104;6.022;2023-04-24T01:17:28;3.83;;;2.40;;
70725;SDS011;58304;53.104;6.022;2023-04-24T01:19:54;3.95;;;2.40;;
70725;SDS011;58304;53.104;6.022;2023-04-24T01:22:21;3.80;;;2.42;;
70725;SDS011;58304;53.104;6.022;2023-04-24T01:24:47;3.92;;;2.30;;
70725;SDS011;58304;53.104;6.022;2023-04-24T01:29:39;3.92;;;2.25;;
70725;SDS011;58304;53.104;6.022;2023-04-24T01:32:05;4.35;;;2.40;;
70725;SDS011;58304;53.104;6.022;2023-04-24T01:34:31;3.70;;;2.13;;
70725;SDS011;58304;53.104;6.022;2023-04-24T01:36:57;3.22;;;2.10;;
70725;SDS011;58304;53.104;6.022;2023-04-24T01:39:23;4.15;;;2.15;;
70725;SDS011;58304;53.104;6.022;2023-04-24T01:41:50;4.32;;;2.38;;
70725;SDS011;58304;53.104;6.022;2023-04-24T01:44:17;4.13;;;2.17;;
70725;SDS011;58304;53.104;6.022;2023-04-24T01:46:43;4.97;;;2.33;;
70725;SDS011;58304;53.104;6.022;2023-04-24T01:49:09;3.88;;;2.30;;
70725;SDS011;58304;53.104;6.022;2023-04-24T01:51:35;4.55;;;2.17;;
70725;SDS011;58304;53.104;6.022;2023-04-24T01:54:01;3.72;;;2.30;;
70725;SDS011;58304;53.104;6.022;2023-04-24T01:56:28;3.63;;;2.42;;
70725;SDS011;58304;53.104;6.022;2023-04-24T01:58:55;3.58;;;2.53;;
70725;SDS011;58304;53.104;6.022;2023-04-24T02:01:23;4.30;;;2.60;;
70725;SDS011;58304;53.104;6.022;2023-04-24T02:03:49;4.60;;;2.88;;
70725;SDS011;58304;53.104;6.022;2023-04-24T02:06:14;4.63;;;2.78;;
70725;SDS011;58304;53.104;6.022;2023-04-24T02:08:40;4.93;;;2.85;;
70725;SDS011;58304;53.104;6.022;2023-04-24T02:11:06;5.20;;;3.13;;
70725;SDS011;58304;53.104;6.022;2023-04-24T02:13:31;5.45;;;3.13;;
70725;SDS011;58304;53.104;6.022;2023-04-24T02:15:58;4.85;;;2.72;;
70725;SDS011;58304;53.104;6.022;2023-04-24T02:18:23;5.35;;;3.03;;
70725;SDS011;58304;53.104;6.022;2023-04-24T02:20:49;4.78;;;3.20;;
70725;SDS011;58304;53.104;6.022;2023-04-24T02:25:40;6.22;;;4.00;;
70725;SDS011;58304;53.104;6.022;2023-04-24T02:28:06;5.70;;;3.50;;
70725;SDS011;58304;53.104;6.022;2023-04-24T02:30:32;5.63;;;3.58;;
70725;SDS011;58304;53.104;6.022;2023-04-24T02:32:57;7.88;;;4.28;;
70725;SDS011;58304;53.104;6.022;2023-04-24T02:37:48;6.38;;;4.40;;
70725;SDS011;58304;53.104;6.022;2023-04-24T02:42:39;7.03;;;4.28;;
70725;SDS011;58304;53.104;6.022;2023-04-24T02:45:05;6.70;;;4.38;;
70725;SDS011;58304;53.104;6.022;2023-04-24T02:47:31;6.38;;;4.05;;
70725;SDS011;58304;53.104;6.022;2023-04-24T02:49:57;6.85;;;4.10;;
70725;SDS011;58304;53.104;6.022;2023-04-24T02:52:22;6.65;;;4.32;;
70725;SDS011;58304;53.104;6.022;2023-04-24T02:54:48;6.65;;;4.13;;
70725;SDS011;58304;53.104;6.022;2023-04-24T02:57:13;7.07;;;4.30;;
70725;SDS011;58304;53.104;6.022;2023-04-24T02:59:40;6.22;;;4.00;;
70725;SDS011;58304;53.104;6.022;2023-04-24T03:02:05;6.47;;;4.38;;
70725;SDS011;58304;53.104;6.022;2023-04-24T03:04:31;7.85;;;4.82;;
70725;SDS011;58304;53.104;6.022;2023-04-24T03:06:57;6.90;;;4.03;;
70725;SDS011;58304;53.104;6.022;2023-04-24T03:09:22;7.68;;;4.38;;
70725;SDS011;58304;53.104;6.022;2023-04-24T03:11:48;8.80;;;4.68;;
70725;SDS011;58304;53.104;6.022;2023-04-24T03:14:15;7.85;;;4.82;;
70725;SDS011;58304;53.104;6.022;2023-04-24T03:16:41;6.60;;;4.18;;
70725;SDS011;58304;53.104;6.022;2023-04-24T03:19:07;6.60;;;4.20;;
70725;SDS011;58304;53.104;6.022;2023-04-24T03:21:32;8.25;;;4.93;;
70725;SDS011;58304;53.104;6.022;2023-04-24T03:23:58;9.68;;;4.15;;
70725;SDS011;58304;53.104;6.022;2023-04-24T03:26:24;5.22;;;3.15;;
70725;SDS011;58304;53.104;6.022;2023-04-24T03:28:52;3.13;;;1.92;;
70725;SDS011;58304;53.104;6.022;2023-04-24T03:31:21;2.70;;;1.70;;
70725;SDS011;58304;53.104;6.022;2023-04-24T03:33:52;2.78;;;1.20;;
70725;SDS011;58304;53.104;6.022;2023-04-24T03:36:21;2.47;;;1.10;;
70725;SDS011;58304;53.104;6.022;2023-04-24T03:38:47;1.38;;;0.85;;
70725;SDS011;58304;53.104;6.022;2023-04-24T03:43:38;1.42;;;0.82;;
70725;SDS011;58304;53.104;6.022;2023-04-24T03:46:04;1.48;;;0.90;;
70725;SDS011;58304;53.104;6.022;2023-04-24T03:50:55;3.15;;;0.70;;
70725;SDS011;58304;53.104;6.022;2023-04-24T03:55:46;1.80;;;0.82;;
70725;SDS011;58304;53.104;6.022;2023-04-24T04:00:39;1.48;;;0.80;;
70725;SDS011;58304;53.104;6.022;2023-04-24T04:03:05;1.48;;;0.88;;
70725;SDS011;58304;53.104;6.022;2023-04-24T04:07:56;3.05;;;1.10;;
70725;SDS011;58304;53.104;6.022;2023-04-24T04:10:22;2.97;;;1.17;;
70725;SDS011;58304;53.104;6.022;2023-04-24T04:15:13;2.65;;;1.63;;
70725;SDS011;58304;53.104;6.022;2023-04-24T04:17:39;6.03;;;1.70;;
70725;SDS011;58304;53.104;6.022;2023-04-24T04:22:34;3.22;;;1.60;;
70725;SDS011;58304;53.104;6.022;2023-04-24T04:25:01;5.15;;;1.80;;
70725;SDS011;58304;53.104;6.022;2023-04-24T04:27:26;3.42;;;1.67;;
70725;SDS011;58304;53.104;6.022;2023-04-24T04:29:53;3.13;;;1.90;;
70725;SDS011;58304;53.104;6.022;2023-04-24T04:32:21;4.13;;;2.05;;
70725;SDS011;58304;53.104;6.022;2023-04-24T04:34:47;4.00;;;1.80;;
70725;SDS011;58304;53.104;6.022;2023-04-24T04:37:14;3.72;;;1.90;;
70725;SDS011;58304;53.104;6.022;2023-04-24T04:39:40;3.40;;;2.00;;
70725;SDS011;58304;53.104;6.022;2023-04-24T04:42:06;7.63;;;2.03;;
70725;SDS011;58304;53.104;6.022;2023-04-24T04:44:31;3.40;;;1.83;;
70725;SDS011;58304;53.104;6.022;2023-04-24T04:46:57;3.30;;;2.10;;
70725;SDS011;58304;53.104;6.022;2023-04-24T04:49:25;4.32;;;2.35;;
70725;SDS011;58304;53.104;6.022;2023-04-24T04:51:53;4.53;;;2.33;;
70725;SDS011;58304;53.104;6.022;2023-04-24T04:54:19;7.32;;;2.90;;
70725;SDS011;58304;53.104;6.022;2023-04-24T04:59:10;6.50;;;3.10;;
70725;SDS011;58304;53.104;6.022;2023-04-24T05:04:01;6.93;;;3.13;;
70725;SDS011;58304;53.104;6.022;2023-04-24T05:06:27;7.32;;;3.42;;
70725;SDS011;58304;53.104;6.022;2023-04-24T05:11:22;6.90;;;3.40;;
70725;SDS011;58304;53.104;6.022;2023-04-24T05:13:48;5.30;;;3.28;;
70725;SDS011;58304;53.104;6.022;2023-04-24T05:16:13;5.97;;;3.00;;
70725;SDS011;58304;53.104;6.022;2023-04-24T05:18:39;5.90;;;2.85;;
70725;SDS011;58304;53.104;6.022;2023-04-24T05:23:31;7.47;;;3.40;;
70725;SDS011;58304;53.104;6.022;2023-04-24T05:28:22;7.32;;;3.55;;
70725;SDS011;58304;53.104;6.022;2023-04-24T05:30:47;8.43;;;3.95;;
70725;SDS011;58304;53.104;6.022;2023-04-24T05:35:40;8.00;;;4.47;;
70725;SDS011;58304;53.104;6.022;2023-04-24T05:38:10;9.38;;;4.10;;
70725;SDS011;58304;53.104;6.022;2023-04-24T05:40:36;5.85;;;3.30;;
70725;SDS011;58304;53.104;6.022;2023-04-24T05:43:02;8.00;;;3.17;;
70725;SDS011;58304;53.104;6.022;2023-04-24T05:45:27;6.38;;;3.40;;
70725;SDS011;58304;53.104;6.022;2023-04-24T05:50:19;7.18;;;2.75;;
70725;SDS011;58304;53.104;6.022;2023-04-24T05:52:44;4.90;;;2.80;;
70725;SDS011;58304;53.104;6.022;2023-04-24T05:55:10;5.00;;;2.90;;
70725;SDS011;58304;53.104;6.022;2023-04-24T06:00:01;5.28;;;2.55;;
70725;SDS011;58304;53.104;6.022;2023-04-24T06:02:28;6.78;;;2.40;;
70725;SDS011;58304;53.104;6.022;2023-04-24T06:04:57;5.15;;;2.38;;
70725;SDS011;58304;53.104;6.022;2023-04-24T06:07:24;4.65;;;2.25;;
70725;SDS011;58304;53.104;6.022;2023-04-24T06:09:51;3.78;;;1.92;;
70725;SDS011;58304;53.104;6.022;2023-04-24T06:14:42;3.88;;;1.70;;
70725;SDS011;58304;53.104;6.022;2023-04-24T06:17:08;5.30;;;1.52;;
70725;SDS011;58304;53.104;6.022;2023-04-24T06:21:59;4.78;;;2.10;;
70725;SDS011;58304;53.104;6.022;2023-04-24T06:26:53;4.57;;;2.10;;
70725;SDS011;58304;53.104;6.022;2023-04-24T06:29:20;3.03;;;1.70;;
70725;SDS011;58304;53.104;6.022;2023-04-24T06:34:11;3.63;;;1.67;;
70725;SDS011;58304;53.104;6.022;2023-04-24T06:36:36;4.40;;;2.00;;
70725;SDS011;58304;53.104;6.022;2023-04-24T06:39:02;4.25;;;2.45;;
70725;SDS011;58304;53.104;6.022;2023-04-24T06:43:54;2.83;;;1.60;;
70725;SDS011;58304;53.104;6.022;2023-04-24T06:48:48;3.90;;;1.80;;
70725;SDS011;58304;53.104;6.022;2023-04-24T06:51:14;3.22;;;1.58;;
70725;SDS011;58304;53.104;6.022;2023-04-24T06:56:05;6.30;;;2.45;;
70725;SDS011;58304;53.104;6.022;2023-04-24T06:58:31;5.15;;;2.05;;
70725;SDS011;58304;53.104;6.022;2023-04-24T07:03:22;6.88;;;2.63;;
70725;SDS011;58304;53.104;6.022;2023-04-24T07:05:48;8.82;;;3.40;;
70725;SDS011;58304;53.104;6.022;2023-04-24T07:10:42;12.85;;;4.97;;
70725;SDS011;58304;53.104;6.022;2023-04-24T07:13:08;13.25;;;5.43;;
70725;SDS011;58304;53.104;6.022;2023-04-24T07:15:34;13.27;;;5.63;;
70725;SDS011;58304;53.104;6.022;2023-04-24T07:18:00;12.63;;;6.75;;
70725;SDS011;58304;53.104;6.022;2023-04-24T07:22:51;17.67;;;7.35;;
70725;SDS011;58304;53.104;6.022;2023-04-24T07:25:19;16.85;;;7.10;;
70725;SDS011;58304;53.104;6.022;2023-04-24T07:30:10;15.75;;;7.00;;
70725;SDS011;58304;53.104;6.022;2023-04-24T07:32:36;18.90;;;6.75;;
70725;SDS011;58304;53.104;6.022;2023-04-24T07:37:27;16.30;;;6.85;;
70725;SDS011;58304;53.104;6.022;2023-04-24T07:42:19;14.63;;;6.13;;
70725;SDS011;58304;53.104;6.022;2023-04-24T07:47:12;20.63;;;7.00;;
70725;SDS011;58304;53.104;6.022;2023-04-24T07:49:41;16.48;;;7.38;;
70725;SDS011;58304;53.104;6.022;2023-04-24T07:52:06;18.65;;;8.50;;
70725;SDS011;58304;53.104;6.022;2023-04-24T07:56:58;17.75;;;8.43;;
70725;SDS011;58304;53.104;6.022;2023-04-24T08:01:49;17.35;;;7.65;;
70725;SDS011;58304;53.104;6.022;2023-04-24T08:04:15;13.48;;;7.45;;
70725;SDS011;58304;53.104;6.022;2023-04-24T08:09:06;16.42;;;7.28;;
70725;SDS011;58304;53.104;6.022;2023-04-24T08:11:32;14.52;;;6.53;;
70725;SDS011;58304;53.104;6.022;2023-04-24T08:16:23;12.65;;;6.00;;
70725;SDS011;58304;53.104;6.022;2023-04-24T08:21:15;14.02;;;4.95;;
70725;SDS011;58304;53.104;6.022;2023-04-24T08:23:43;10.38;;;5.18;;
70725;SDS011;58304;53.104;6.022;2023-04-24T08:26:12;12.38;;;5.18;;
70725;SDS011;58304;53.104;6.022;2023-04-24T08:28:38;14.20;;;5.10;;
70725;SDS011;58304;53.104;6.022;2023-04-24T08:33:29;9.35;;;5.15;;
70725;SDS011;58304;53.104;6.022;2023-04-24T08:35:59;12.60;;;5.32;;
70725;SDS011;58304;53.104;6.022;2023-04-24T08:38:26;13.65;;;5.25;;
70725;SDS011;58304;53.104;6.022;2023-04-24T08:43:18;11.40;;;5.07;;
70725;SDS011;58304;53.104;6.022;2023-04-24T08:45:47;14.40;;;5.20;;
70725;SDS011;58304;53.104;6.022;2023-04-24T08:50:38;10.90;;;5.30;;
70725;SDS011;58304;53.104;6.022;2023-04-24T08:53:07;13.60;;;5.35;;
70725;SDS011;58304;53.104;6.022;2023-04-24T08:55:33;12.07;;;5.07;;
70725;SDS011;58304;53.104;6.022;2023-04-24T08:58:00;13.00;;;4.60;;
70725;SDS011;58304;53.104;6.022;2023-04-24T09:00:27;12.48;;;4.20;;
70725;SDS011;58304;53.104;6.022;2023-04-24T09:02:53;9.80;;;4.03;;
70725;SDS011;58304;53.104;6.022;2023-04-24T09:05:20;10.07;;;3.95;;
70725;SDS011;58304;53.104;6.022;2023-04-24T09:07:53;11.23;;;4.18;;
70725;SDS011;58304;53.104;6.022;2023-04-24T09:10:21;11.40;;;3.90;;
70725;SDS011;58304;53.104;6.022;2023-04-24T09:12:50;9.02;;;4.00;;
70725;SDS011;58304;53.104;6.022;2023-04-24T09:15:18;9.15;;;3.47;;
70725;SDS011;58304;53.104;6.022;2023-04-24T09:17:45;7.38;;;3.20;;
70725;SDS011;58304;53.104;6.022;2023-04-24T09:20:11;9.65;;;3.42;;
70725;SDS011;58304;53.104;6.022;2023-04-24T09:22:37;8.07;;;3.30;;
70725;SDS011;58304;53.104;6.022;2023-04-24T09:27:31;8.13;;;2.75;;
70725;SDS011;58304;53.104;6.022;2023-04-24T09:30:00;7.50;;;2.72;;
70725;SDS011;58304;53.104;6.022;2023-04-24T09:32:27;7.72;;;2.85;;
70725;SDS011;58304;53.104;6.022;2023-04-24T09:40:08;10.80;;;3.20;;
70725;SDS011;58304;53.104;6.022;2023-04-24T09:42:33;11.00;;;3.08;;
70725;SDS011;58304;53.104;6.022;2023-04-24T09:44:59;8.60;;;2.70;;
70725;SDS011;58304;53.104;6.022;2023-04-24T09:47:25;10.35;;;2.88;;
70725;SDS011;58304;53.104;6.022;2023-04-24T09:49:50;9.73;;;2.90;;
70725;SDS011;58304;53.104;6.022;2023-04-24T09:52:22;5.70;;;2.35;;
70725;SDS011;58304;53.104;6.022;2023-04-24T09:54:53;7.93;;;2.28;;
70725;SDS011;58304;53.104;6.022;2023-04-24T09:57:19;7.45;;;2.00;;
70725;SDS011;58304;53.104;6.022;2023-04-24T09:59:45;6.22;;;2.20;;
70725;SDS011;58304;53.104;6.022;2023-04-24T10:02:18;8.05;;;2.60;;
70725;SDS011;58304;53.104;6.022;2023-04-24T10:04:53;11.30;;;2.22;;
70725;SDS011;58304;53.104;6.022;2023-04-24T10:07:27;6.05;;;2.00;;
70725;SDS011;58304;53.104;6.022;2023-04-24T10:09:53;11.55;;;2.15;;
70725;SDS011;58304;53.104;6.022;2023-04-24T10:12:20;5.88;;;2.22;;
70725;SDS011;58304;53.104;6.022;2023-04-24T10:14:46;10.10;;;1.98;;
70725;SDS011;58304;53.104;6.022;2023-04-24T10:17:12;7.63;;;1.77;;
70725;SDS011;58304;53.104;6.022;2023-04-24T10:19:39;5.70;;;2.00;;
70725;SDS011;58304;53.104;6.022;2023-04-24T10:22:07;11.43;;;2.13;;
70725;SDS011;58304;53.104;6.022;2023-04-24T10:24:33;8.65;;;2.10;;
70725;SDS011;58304;53.104;6.022;2023-04-24T10:27:01;7.18;;;1.70;;
70725;SDS011;58304;53.104;6.022;2023-04-24T10:29:28;7.63;;;1.73;;
70725;SDS011;58304;53.104;6.022;2023-04-24T10:31:56;8.10;;;1.63;;
70725;SDS011;58304;53.104;6.022;2023-04-24T10:34:22;6.65;;;1.60;;
70725;SDS011;58304;53.104;6.022;2023-04-24T10:36:50;9.85;;;1.60;;
70725;SDS011;58304;53.104;6.022;2023-04-24T10:39:17;6.18;;;1.70;;
70725;SDS011;58304;53.104;6.022;2023-04-24T10:41:44;5.03;;;1.48;;
70725;SDS011;58304;53.104;6.022;2023-04-24T10:44:14;6.90;;;1.35;;
70725;SDS011;58304;53.104;6.022;2023-04-24T10:46:44;5.38;;;1.70;;
70725;SDS011;58304;53.104;6.022;2023-04-24T10:49:13;8.48;;;1.33;;
70725;SDS011;58304;53.104;6.022;2023-04-24T10:51:51;6.60;;;1.73;;
70725;SDS011;58304;53.104;6.022;2023-04-24T10:54:25;6.55;;;1.40;;
70725;SDS011;58304;53.104;6.022;2023-04-24T10:56:52;7.68;;;1.50;;
70725;SDS011;58304;53.104;6.022;2023-04-24T10:59:38;6.13;;;1.45;;
70725;SDS011;58304;53.104;6.022;2023-04-24T11:02:04;6.93;;;1.40;;
70725;SDS011;58304;53.104;6.022;2023-04-24T11:04:33;5.38;;;1.35;;
70725;SDS011;58304;53.104;6.022;2023-04-24T11:07:00;6.47;;;1.23;;
70725;SDS011;58304;53.104;6.022;2023-04-24T11:09:27;4.90;;;1.08;;
70725;SDS011;58304;53.104;6.022;2023-04-24T11:12:08;6.15;;;1.30;;
70725;SDS011;58304;53.104;6.022;2023-04-24T11:15:09;4.15;;;1.20;;
70725;SDS011;58304;53.104;6.022;2023-04-24T11:17:32;8.10;;;1.60;;
70725;SDS011;58304;53.104;6.022;2023-04-24T11:20:06;6.28;;;1.30;;
70725;SDS011;58304;53.104;6.022;2023-04-24T11:22:34;10.27;;;1.52;;
70725;SDS011;58304;53.104;6.022;2023-04-24T11:25:01;4.63;;;1.35;;
70725;SDS011;58304;53.104;6.022;2023-04-24T11:27:29;8.25;;;1.17;;
70725;SDS011;58304;53.104;6.022;2023-04-24T11:30:08;4.95;;;1.52;;
70725;SDS011;58304;53.104;6.022;2023-04-24T11:32:36;5.57;;;1.40;;
70725;SDS011;58304;53.104;6.022;2023-04-24T11:35:27;5.13;;;1.45;;
70725;SDS011;58304;53.104;6.022;2023-04-24T11:37:54;5.63;;;1.17;;
70725;SDS011;58304;53.104;6.022;2023-04-24T11:40:21;9.63;;;1.60;;
70725;SDS011;58304;53.104;6.022;2023-04-24T11:42:51;4.88;;;1.10;;
70725;SDS011;58304;53.104;6.022;2023-04-24T11:45:20;4.18;;;1.27;;
70725;SDS011;58304;53.104;6.022;2023-04-24T11:47:51;6.63;;;1.17;;
70725;SDS011;58304;53.104;6.022;2023-04-24T11:52:44;3.58;;;1.40;;
70725;SDS011;58304;53.104;6.022;2023-04-24T11:57:44;3.88;;;1.10;;
70725;SDS011;58304;53.104;6.022;2023-04-24T12:00:18;5.32;;;1.02;;
70725;SDS011;58304;53.104;6.022;2023-04-24T12:02:48;3.65;;;0.98;;
70725;SDS011;58304;53.104;6.022;2023-04-24T12:05:22;6.03;;;1.00;;
70725;SDS011;58304;53.104;6.022;2023-04-24T12:07:49;4.85;;;1.50;;
70725;SDS011;58304;53.104;6.022;2023-04-24T12:10:19;6.28;;;1.65;;
70725;SDS011;58304;53.104;6.022;2023-04-24T12:12:48;5.07;;;0.77;;
70725;SDS011;58304;53.104;6.022;2023-04-24T12:15:16;3.75;;;1.00;;
70725;SDS011;58304;53.104;6.022;2023-04-24T12:17:43;4.82;;;0.85;;
70725;SDS011;58304;53.104;6.022;2023-04-24T12:20:10;4.03;;;0.90;;
70725;SDS011;58304;53.104;6.022;2023-04-24T12:22:55;2.95;;;0.75;;
70725;SDS011;58304;53.104;6.022;2023-04-24T12:25:23;4.80;;;1.02;;
70725;SDS011;58304;53.104;6.022;2023-04-24T12:30:28;5.00;;;1.00;;
70725;SDS011;58304;53.104;6.022;2023-04-24T12:32:54;10.07;;;1.00;;
70725;SDS011;58304;53.104;6.022;2023-04-24T12:35:22;3.75;;;0.80;;
70725;SDS011;58304;53.104;6.022;2023-04-24T12:37:49;7.97;;;1.23;;
70725;SDS011;58304;53.104;6.022;2023-04-24T12:40:16;4.25;;;0.90;;
70725;SDS011;58304;53.104;6.022;2023-04-24T12:42:44;3.97;;;0.60;;
70725;SDS011;58304;53.104;6.022;2023-04-24T12:45:11;4.60;;;0.70;;
70725;SDS011;58304;53.104;6.022;2023-04-24T12:47:38;1.98;;;0.60;;
70725;SDS011;58304;53.104;6.022;2023-04-24T12:50:05;4.80;;;0.60;;
70725;SDS011;58304;53.104;6.022;2023-04-24T12:52:38;3.55;;;0.90;;
70725;SDS011;58304;53.104;6.022;2023-04-24T12:55:04;5.10;;;0.70;;
70725;SDS011;58304;53.104;6.022;2023-04-24T12:57:33;3.70;;;0.77;;
70725;SDS011;58304;53.104;6.022;2023-04-24T13:00:00;1.52;;;0.50;;
70725;SDS011;58304;53.104;6.022;2023-04-24T13:02:29;1.10;;;0.50;;
70725;SDS011;58304;53.104;6.022;2023-04-24T13:04:56;2.72;;;0.50;;
70725;SDS011;58304;53.104;6.022;2023-04-24T13:07:22;1.92;;;0.60;;
70725;SDS011;58304;53.104;6.022;2023-04-24T13:09:48;1.92;;;0.70;;
70725;SDS011;58304;53.104;6.022;2023-04-24T13:12:15;1.70;;;0.50;;
70725;SDS011;58304;53.104;6.022;2023-04-24T13:14:41;3.25;;;0.80;;
70725;SDS011;58304;53.104;6.022;2023-04-24T13:17:07;5.45;;;0.82;;
70725;SDS011;58304;53.104;6.022;2023-04-24T13:19:36;4.90;;;0.90;;
70725;SDS011;58304;53.104;6.022;2023-04-24T13:22:03;6.68;;;0.95;;
70725;SDS011;58304;53.104;6.022;2023-04-24T13:24:29;4.40;;;0.80;;
70725;SDS011;58304;53.104;6.022;2023-04-24T13:26:56;6.75;;;1.35;;
70725;SDS011;58304;53.104;6.022;2023-04-24T13:29:21;7.43;;;1.20;;
70725;SDS011;58304;53.104;6.022;2023-04-24T13:31:49;8.43;;;1.45;;
70725;SDS011;58304;53.104;6.022;2023-04-24T13:34:16;7.82;;;1.25;;
70725;SDS011;58304;53.104;6.022;2023-04-24T13:36:42;8.15;;;1.48;;
70725;SDS011;58304;53.104;6.022;2023-04-24T13:39:08;4.80;;;1.30;;
70725;SDS011;58304;53.104;6.022;2023-04-24T13:41:35;7.10;;;1.33;;
70725;SDS011;58304;53.104;6.022;2023-04-24T13:44:01;11.38;;;1.45;;
70725;SDS011;58304;53.104;6.022;2023-04-24T13:46:30;9.93;;;1.52;;
70725;SDS011;58304;53.104;6.022;2023-04-24T13:48:56;8.00;;;1.50;;
70725;SDS011;58304;53.104;6.022;2023-04-24T13:51:23;7.55;;;1.70;;
70725;SDS011;58304;53.104;6.022;2023-04-24T13:53:52;6.70;;;2.00;;
70725;SDS011;58304;53.104;6.022;2023-04-24T13:56:18;7.75;;;1.60;;
70725;SDS011;58304;53.104;6.022;2023-04-24T14:01:09;7.05;;;1.55;;
70725;SDS011;58304;53.104;6.022;2023-04-24T14:06:02;10.25;;;1.60;;
70725;SDS011;58304;53.104;6.022;2023-04-24T14:10:53;10.98;;;2.22;;
70725;SDS011;58304;53.104;6.022;2023-04-24T14:15:45;7.65;;;1.80;;
70725;SDS011;58304;53.104;6.022;2023-04-24T14:20:36;10.57;;;1.88;;
70725;SDS011;58304;53.104;6.022;2023-04-24T14:25:28;9.63;;;1.95;;
70725;SDS011;58304;53.104;6.022;2023-04-24T14:27:55;8.45;;;1.83;;
70725;SDS011;58304;53.104;6.022;2023-04-24T14:32:46;17.38;;;2.13;;
70725;SDS011;58304;53.104;6.022;2023-04-24T14:35:13;11.05;;;2.42;;
70725;SDS011;58304;53.104;6.022;2023-04-24T14:37:39;12.25;;;1.95;;
70725;SDS011;58304;53.104;6.022;2023-04-24T14:40:08;8.55;;;2.03;;
70725;SDS011;58304;53.104;6.022;2023-04-24T14:42:34;8.13;;;2.30;;
70725;SDS011;58304;53.104;6.022;2023-04-24T14:45:00;7.63;;;1.80;;
70725;SDS011;58304;53.104;6.022;2023-04-24T14:47:26;9.82;;;2.58;;
70725;SDS011;58304;53.104;6.022;2023-04-24T14:52:18;8.75;;;2.25;;
70725;SDS011;58304;53.104;6.022;2023-04-24T14:54:43;9.40;;;2.10;;
70725;SDS011;58304;53.104;6.022;2023-04-24T14:57:09;7.40;;;1.95;;
70725;SDS011;58304;53.104;6.022;2023-04-24T15:02:00;7.40;;;2.05;;
70725;SDS011;58304;53.104;6.022;2023-04-24T15:04:27;9.90;;;2.25;;
70725;SDS011;58304;53.104;6.022;2023-04-24T15:06:53;8.23;;;2.10;;
70725;SDS011;58304;53.104;6.022;2023-04-24T15:09:23;10.13;;;2.47;;
70725;SDS011;58304;53.104;6.022;2023-04-24T15:11:51;9.93;;;2.25;;
70725;SDS011;58304;53.104;6.022;2023-04-24T15:16:43;13.73;;;2.88;;
70725;SDS011;58304;53.104;6.022;2023-04-24T15:19:09;9.77;;;1.85;;
70725;SDS011;58304;53.104;6.022;2023-04-24T15:24:01;11.25;;;2.20;;
70725;SDS011;58304;53.104;6.022;2023-04-24T15:28:52;9.23;;;1.83;;
70725;SDS011;58304;53.104;6.022;2023-04-24T15:31:21;8.55;;;2.13;;
70725;SDS011;58304;53.104;6.022;2023-04-24T15:33:48;9.07;;;2.40;;
70725;SDS011;58304;53.104;6.022;2023-04-24T15:36:14;15.15;;;2.92;;
70725;SDS011;58304;53.104;6.022;2023-04-24T15:38:42;16.15;;;2.72;;
70725;SDS011;58304;53.104;6.022;2023-04-24T15:41:08;10.20;;;2.30;;
70725;SDS011;58304;53.104;6.022;2023-04-24T15:46:00;12.02;;;2.80;;
70725;SDS011;58304;53.104;6.022;2023-04-24T15:48:29;10.15;;;2.10;;
70725;SDS011;58304;53.104;6.022;2023-04-24T15:50:55;10.70;;;2.10;;
70725;SDS011;58304;53.104;6.022;2023-04-24T15:55:50;9.88;;;2.17;;
70725;SDS011;58304;53.104;6.022;2023-04-24T15:58:17;10.27;;;2.40;;
70725;SDS011;58304;53.104;6.022;2023-04-24T16:00:43;10.82;;;2.92;;
70725;SDS011;58304;53.104;6.022;2023-04-24T16:03:10;8.13;;;2.30;;
70725;SDS011;58304;53.104;6.022;2023-04-24T16:05:36;10.95;;;2.42;;
70725;SDS011;58304;53.104;6.022;2023-04-24T16:10:27;9.52;;;2.40;;
70725;SDS011;58304;53.104;6.022;2023-04-24T16:15:19;5.93;;;2.40;;
70725;SDS011;58304;53.104;6.022;2023-04-24T16:17:45;6.30;;;1.98;;
70725;SDS011;58304;53.104;6.022;2023-04-24T16:20:12;8.60;;;2.47;;
70725;SDS011;58304;53.104;6.022;2023-04-24T16:22:38;9.13;;;2.70;;
70725;SDS011;58304;53.104;6.022;2023-04-24T16:25:04;11.57;;;2.72;;
70725;SDS011;58304;53.104;6.022;2023-04-24T16:27:31;14.50;;;2.70;;
70725;SDS011;58304;53.104;6.022;2023-04-24T16:32:22;8.73;;;2.65;;
70725;SDS011;58304;53.104;6.022;2023-04-24T16:37:13;5.80;;;1.80;;
70725;SDS011;58304;53.104;6.022;2023-04-24T16:42:09;3.10;;;1.55;;
70725;SDS011;58304;53.104;6.022;2023-04-24T16:44:35;4.25;;;1.85;;
70725;SDS011;58304;53.104;6.022;2023-04-24T16:47:03;6.82;;;2.20;;
70725;SDS011;58304;53.104;6.022;2023-04-24T16:49:29;4.18;;;1.90;;
70725;SDS011;58304;53.104;6.022;2023-04-24T16:51:56;8.20;;;2.30;;
70725;SDS011;58304;53.104;6.022;2023-04-24T16:56:48;6.30;;;1.95;;
70725;SDS011;58304;53.104;6.022;2023-04-24T17:01:39;7.53;;;2.08;;
70725;SDS011;58304;53.104;6.022;2023-04-24T17:06:36;7.47;;;2.22;;
70725;SDS011;58304;53.104;6.022;2023-04-24T17:11:27;6.63;;;2.38;;
70725;SDS011;58304;53.104;6.022;2023-04-24T17:16:18;6.53;;;2.58;;
70725;SDS011;58304;53.104;6.022;2023-04-24T17:21:10;8.57;;;2.40;;
70725;SDS011;58304;53.104;6.022;2023-04-24T17:26:01;5.10;;;1.80;;
70725;SDS011;58304;53.104;6.022;2023-04-24T17:30:54;4.53;;;1.75;;
70725;SDS011;58304;53.104;6.022;2023-04-24T17:33:22;4.57;;;1.80;;
70725;SDS011;58304;53.104;6.022;2023-04-24T17:35:49;6.47;;;1.80;;
70725;SDS011;58304;53.104;6.022;2023-04-24T17:40:40;7.32;;;2.00;;
70725;SDS011;58304;53.104;6.022;2023-04-24T17:45:31;9.40;;;2.17;;
70725;SDS011;58304;53.104;6.022;2023-04-24T17:50:23;9.23;;;1.70;;
70725;SDS011;58304;53.104;6.022;2023-04-24T17:55:14;4.93;;;1.83;;